createdAt,value
2023-04-02T00:03:46.238Z,0.70
2023-04-02T00:09:13.840Z,1.10
2023-04-02T00:14:36.684Z,0.50
2023-04-02T00:20:03.067Z,1.25
2023-04-02T00:25:28.706Z,1.15
2023-04-02T00:36:20.438Z,1.70
2023-04-02T00:41:47.529Z,1.17
2023-04-02T00:47:27.773Z,0.90
2023-04-02T00:52:52.794Z,1.20
2023-04-02T00:58:25.734Z,1.77
2023-04-02T01:04:01.623Z,1.70
2023-04-02T01:14:59.150Z,1.42
2023-04-02T01:20:39.279Z,1.15
2023-04-02T01:26:27.492Z,1.00
2023-04-02T01:31:52.127Z,1.30
2023-04-02T01:37:46.996Z,1.00
2023-04-02T01:43:15.257Z,0.95
2023-04-02T01:48:39.814Z,0.90
2023-04-02T01:54:04.681Z,0.85
2023-04-02T01:59:27.024Z,0.60
2023-04-02T02:04:49.079Z,0.70
2023-04-02T02:10:16.686Z,0.70
2023-04-02T02:15:38.566Z,1.10
2023-04-02T02:21:05.167Z,1.10
2023-04-02T02:26:29.232Z,1.30
2023-04-02T02:31:55.334Z,1.15
2023-04-02T02:37:28.560Z,2.38
2023-04-02T02:42:58.345Z,1.65
2023-04-02T02:48:24.256Z,1.63
2023-04-02T02:53:51.168Z,1.60
2023-04-02T02:59:16.316Z,1.92
2023-04-02T03:04:38.951Z,1.23
2023-04-02T03:10:20.944Z,1.60
2023-04-02T03:15:57.612Z,1.92
2023-04-02T03:21:34.447Z,1.42
2023-04-02T03:27:03.207Z,1.52
2023-04-02T03:32:34.174Z,2.15
2023-04-02T03:38:02.436Z,1.80
2023-04-02T03:43:55.264Z,2.85
2023-04-02T03:49:28.162Z,1.65
2023-04-02T03:54:53.776Z,2.15
2023-04-02T04:00:39.400Z,3.85
2023-04-02T04:06:10.486Z,2.25
2023-04-02T04:11:39.996Z,2.22
2023-04-02T04:17:14.147Z,2.08
2023-04-02T04:22:36.314Z,1.90
2023-04-02T04:28:29.586Z,2.35
2023-04-02T04:34:03.304Z,5.03
2023-04-02T04:39:50.797Z,2.83
2023-04-02T04:45:30.653Z,1.90
2023-04-02T04:51:06.168Z,4.32
2023-04-02T04:56:31.016Z,2.03
2023-04-02T05:02:22.342Z,5.23
2023-04-02T05:07:49.478Z,2.15
2023-04-02T05:13:36.924Z,1.88
2023-04-02T05:19:14.335Z,1.50
2023-04-02T05:24:55.307Z,4.80
2023-04-02T05:30:29.031Z,6.20
2023-04-02T05:35:57.794Z,3.47
2023-04-02T05:41:38.714Z,9.40
2023-04-02T05:47:24.529Z,2.05
2023-04-02T05:52:52.351Z,3.10
2023-04-02T06:03:57.557Z,5.65
2023-04-02T06:09:46.458Z,4.13
2023-04-02T06:15:15.802Z,7.07
2023-04-02T06:20:37.639Z,4.63
2023-04-02T06:26:15.438Z,8.90
2023-04-02T06:31:43.085Z,4.72
2023-04-02T06:37:29.107Z,4.93
2023-04-02T06:42:56.575Z,4.07
2023-04-02T06:48:21.061Z,3.08
2023-04-02T06:53:48.613Z,4.32
2023-04-02T06:59:12.968Z,3.40
2023-04-02T07:04:34.981Z,2.85
2023-04-02T07:09:57.844Z,3.33
2023-04-02T07:15:20.253Z,3.53
2023-04-02T07:20:42.410Z,4.07
2023-04-02T07:26:06.935Z,2.88
2023-04-02T07:31:29.027Z,5.03
2023-04-02T07:36:50.964Z,3.42
2023-04-02T07:42:12.905Z,1.92
2023-04-02T07:47:34.863Z,1.75
2023-04-02T07:52:57.302Z,3.35
2023-04-02T07:58:19.146Z,4.32
2023-04-02T08:03:41.767Z,1.92
2023-04-02T08:09:03.989Z,3.28
2023-04-02T08:14:25.931Z,2.17
2023-04-02T08:19:54.674Z,2.20
2023-04-02T08:25:17.568Z,1.98
2023-04-02T08:30:39.743Z,3.50
2023-04-02T08:36:01.957Z,2.55
2023-04-02T08:41:29.075Z,1.80
2023-04-02T08:47:05.791Z,1.88
2023-04-02T08:52:32.786Z,1.77
2023-04-02T08:58:46.282Z,1.35
2023-04-02T09:04:16.698Z,3.28
2023-04-02T09:09:39.047Z,3.78
2023-04-02T09:15:29.752Z,2.35
2023-04-02T09:20:51.837Z,2.00
2023-04-02T09:26:29.527Z,1.55
2023-04-02T09:32:02.710Z,1.65
2023-04-02T09:37:25.675Z,3.22
2023-04-02T09:42:47.683Z,2.70
2023-04-02T09:48:30.611Z,2.47
2023-04-02T09:54:08.691Z,2.72
2023-04-02T09:59:30.585Z,1.88
2023-04-02T10:04:52.629Z,2.80
2023-04-02T10:10:23.496Z,2.63
2023-04-02T10:16:16.671Z,1.65
2023-04-02T10:21:40.983Z,2.25
2023-04-02T10:27:17.653Z,1.65
2023-04-02T10:32:50.727Z,3.05
2023-04-02T10:38:27.573Z,2.08
2023-04-02T10:44:03.649Z,8.43
2023-04-02T10:49:49.717Z,1.77
2023-04-02T10:55:22.509Z,1.70
2023-04-02T11:00:46.119Z,3.28
2023-04-02T11:06:28.467Z,2.22
2023-04-02T11:11:56.022Z,2.58
2023-04-02T11:17:20.829Z,2.67
2023-04-02T11:22:43.186Z,1.23
2023-04-02T11:28:31.054Z,2.47
2023-04-02T11:33:54.032Z,2.30
2023-04-02T11:40:06.781Z,0.80
2023-04-02T11:45:28.605Z,1.20
2023-04-02T11:50:50.555Z,5.13
2023-04-02T11:56:42.664Z,1.92
2023-04-02T12:02:20.211Z,2.05
2023-04-02T12:07:57.017Z,2.05
2023-04-02T12:13:41.421Z,12.65
2023-04-02T12:19:08.968Z,14.05
2023-04-02T12:24:31.643Z,9.05
2023-04-02T12:30:13.199Z,5.20
2023-04-02T12:35:36.692Z,5.07
2023-04-02T12:41:01.547Z,4.72
2023-04-02T12:46:26.106Z,6.33
2023-04-02T12:51:49.012Z,3.40
2023-04-02T12:57:26.417Z,3.60
2023-04-02T13:02:52.262Z,3.72
2023-04-02T13:08:22.419Z,3.70
2023-04-02T13:13:46.624Z,4.53
2023-04-02T13:19:28.428Z,2.60
2023-04-02T13:24:50.195Z,3.33
2023-04-02T13:30:22.661Z,2.35
2023-04-02T13:35:44.985Z,4.20
2023-04-02T13:41:12.558Z,5.75
2023-04-02T13:46:36.164Z,2.75
2023-04-02T13:52:00.866Z,5.30
2023-04-02T13:57:22.837Z,11.03
2023-04-02T14:03:08.353Z,34.58
2023-04-02T14:08:30.242Z,27.15
2023-04-02T14:14:21.707Z,59.17
2023-04-02T14:19:57.736Z,33.55
2023-04-02T14:25:25.399Z,24.55
2023-04-02T14:31:07.487Z,29.63
2023-04-02T14:36:32.093Z,18.90
2023-04-02T14:42:28.976Z,21.80
2023-04-02T14:47:57.776Z,19.58
2023-04-02T14:53:37.622Z,11.85
2023-04-02T14:59:37.186Z,9.23
2023-04-02T15:05:04.582Z,12.85
2023-04-02T15:10:31.739Z,12.63
2023-04-02T15:15:58.895Z,13.05
2023-04-02T15:21:20.715Z,8.63
2023-04-02T15:27:30.118Z,7.63
2023-04-02T15:32:55.303Z,3.63
2023-04-02T15:38:31.240Z,5.78
2023-04-02T15:44:13.512Z,8.82
2023-04-02T15:50:04.871Z,5.25
2023-04-02T15:55:46.400Z,8.68
2023-04-02T16:01:35.530Z,5.90
2023-04-02T16:07:06.218Z,7.05
2023-04-02T16:12:31.039Z,7.50
2023-04-02T16:18:01.804Z,4.17
2023-04-02T16:23:35.957Z,3.60
2023-04-02T16:29:12.708Z,7.90
2023-04-02T16:35:01.799Z,10.73
2023-04-02T16:40:57.124Z,3.13
2023-04-02T16:46:31.774Z,2.72
2023-04-02T16:52:24.707Z,3.08
2023-04-02T16:58:00.875Z,6.00
2023-04-02T17:03:54.665Z,5.32
2023-04-02T17:09:50.752Z,2.65
2023-04-02T17:15:27.949Z,7.78
2023-04-02T17:20:51.315Z,7.95
2023-04-02T17:26:14.502Z,4.65
2023-04-02T17:31:38.254Z,5.95
2023-04-02T17:37:54.099Z,2.42
2023-04-02T17:43:57.561Z,4.03
2023-04-02T17:49:40.983Z,3.60
2023-04-02T17:55:27.485Z,1.30
2023-04-02T18:01:06.617Z,3.78
2023-04-02T18:06:39.387Z,3.05
2023-04-02T18:12:13.388Z,2.35
2023-04-02T18:17:38.279Z,2.35
2023-04-02T18:23:21.648Z,2.90
2023-04-02T18:28:50.781Z,6.63
2023-04-02T18:34:15.412Z,2.13
2023-04-02T18:40:12.158Z,20.17
2023-04-02T18:45:39.281Z,2.88
2023-04-02T18:51:02.445Z,12.60
2023-04-02T18:56:25.746Z,16.25
2023-04-02T19:01:51.565Z,11.40
2023-04-02T19:07:18.937Z,5.47
2023-04-02T19:12:40.931Z,5.95
2023-04-02T19:18:18.641Z,3.30
2023-04-02T19:23:43.242Z,9.40
2023-04-02T19:29:28.593Z,7.23
2023-04-02T19:35:36.229Z,4.32
2023-04-02T19:41:04.348Z,6.50
2023-04-02T19:46:26.924Z,12.68
2023-04-02T19:51:49.758Z,25.25
2023-04-02T19:57:15.912Z,12.30
2023-04-02T20:02:37.931Z,11.10
2023-04-02T20:07:59.724Z,5.25
2023-04-02T20:13:21.514Z,16.02
2023-04-02T20:18:43.305Z,13.75
2023-04-02T20:24:07.302Z,13.70
2023-04-02T20:29:31.005Z,9.63
2023-04-02T20:34:54.745Z,12.00
2023-04-02T20:40:16.729Z,13.70
2023-04-02T20:45:39.048Z,8.90
2023-04-02T20:51:03.183Z,8.05
2023-04-02T20:56:25.157Z,14.60
2023-04-02T21:01:46.987Z,9.20
2023-04-02T21:07:08.785Z,9.20
2023-04-02T21:12:31.500Z,9.88
2023-04-02T21:17:53.350Z,5.50
2023-04-02T21:23:15.123Z,8.30
2023-04-02T21:28:36.957Z,7.93
2023-04-02T21:33:59.839Z,6.43
2023-04-02T21:39:23.744Z,7.18
2023-04-02T21:44:45.553Z,5.38
2023-04-02T21:50:08.259Z,5.30
2023-04-02T21:55:30.181Z,5.03
2023-04-02T22:00:52.076Z,5.35
2023-04-02T22:06:17.384Z,2.35
2023-04-02T22:11:45.384Z,5.38
2023-04-02T22:17:07.905Z,3.13
2023-04-02T22:22:29.744Z,4.57
2023-04-02T22:27:52.222Z,3.05
2023-04-02T22:33:14.068Z,4.25
2023-04-02T22:38:36.589Z,4.03
2023-04-02T22:43:59.755Z,3.35
2023-04-02T22:49:21.638Z,2.42
2023-04-02T22:54:43.460Z,2.70
2023-04-02T23:00:10.041Z,2.00
2023-04-02T23:24:41.205Z,3.08
2023-04-02T23:30:03.172Z,1.75
2023-04-02T23:35:25.117Z,1.77
2023-04-02T23:40:46.879Z,1.10
2023-04-02T23:46:08.904Z,1.42
2023-04-02T23:51:32.559Z,1.52
2023-04-02T23:56:54.365Z,2.05
